createdAt,value
2019-01-12T00:00:29.305Z,6.03
2019-01-12T00:02:56.561Z,4.17
2019-01-12T00:05:23.918Z,5.10
2019-01-12T00:07:51.459Z,3.63
2019-01-12T00:10:18.835Z,9.07
2019-01-12T00:12:46.168Z,7.53
2019-01-12T00:15:13.414Z,5.17
2019-01-12T00:17:40.686Z,4.07
2019-01-12T00:20:08.219Z,5.50
2019-01-12T00:22:35.855Z,6.87
2019-01-12T00:25:03.904Z,8.23
2019-01-12T00:27:31.150Z,4.57
2019-01-12T00:29:58.439Z,5.90
2019-01-12T00:32:25.697Z,6.60
2019-01-12T00:34:52.919Z,5.80
2019-01-12T00:37:20.191Z,5.23
2019-01-12T00:39:47.719Z,6.53
2019-01-12T00:42:14.987Z,6.03
2019-01-12T00:44:42.473Z,5.43
2019-01-12T00:47:09.733Z,4.33
2019-01-12T00:49:37.093Z,5.30
2019-01-12T00:52:04.868Z,5.63
2019-01-12T00:54:38.355Z,5.67
2019-01-12T00:57:01.184Z,3.57
2019-01-12T00:59:28.780Z,7.30
2019-01-12T01:01:56.035Z,4.90
2019-01-12T01:04:23.311Z,2.63
2019-01-12T01:06:50.656Z,6.93
2019-01-12T01:09:17.900Z,4.63
2019-01-12T01:11:45.163Z,4.07
2019-01-12T01:14:12.430Z,1.83
2019-01-12T01:16:39.982Z,2.57
2019-01-12T01:19:07.230Z,3.53
2019-01-12T01:21:34.507Z,6.03
2019-01-12T01:24:02.403Z,3.00
2019-01-12T01:26:29.656Z,3.70
2019-01-12T01:28:56.885Z,6.20
2019-01-12T01:31:24.132Z,3.20
2019-01-12T01:33:51.402Z,5.63
2019-01-12T01:36:19.205Z,10.00
2019-01-12T01:38:47.000Z,4.33
2019-01-12T01:41:14.285Z,8.97
2019-01-12T01:43:41.546Z,5.47
2019-01-12T01:46:08.808Z,7.73
2019-01-12T01:48:36.081Z,11.80
2019-01-12T01:51:03.458Z,7.50
2019-01-12T01:53:30.695Z,6.77
2019-01-12T01:55:57.942Z,5.87
2019-01-12T01:58:25.225Z,8.27
2019-01-12T02:00:52.481Z,4.77
2019-01-12T02:03:19.978Z,6.10
2019-01-12T02:05:47.302Z,3.57
2019-01-12T02:08:14.796Z,3.00
2019-01-12T02:10:42.039Z,3.20
2019-01-12T02:13:09.319Z,1.60
2019-01-12T02:15:36.562Z,5.07
2019-01-12T02:18:03.916Z,3.37
2019-01-12T02:20:31.546Z,4.03
2019-01-12T02:22:59.090Z,2.53
2019-01-12T02:25:26.709Z,3.83
2019-01-12T02:27:53.981Z,3.40
2019-01-12T02:30:22.551Z,6.20
2019-01-12T02:32:49.928Z,8.50
2019-01-12T02:35:17.794Z,5.67
2019-01-12T02:37:45.036Z,6.33
2019-01-12T02:40:12.755Z,6.73
2019-01-12T02:42:40.288Z,11.00
2019-01-12T02:45:07.543Z,10.20
2019-01-12T02:47:35.145Z,6.03
2019-01-12T02:50:21.956Z,13.57
2019-01-12T02:52:49.200Z,21.17
2019-01-12T02:55:16.448Z,19.93
2019-01-12T02:57:44.082Z,15.50
2019-01-12T03:00:12.493Z,12.77
2019-01-12T03:02:40.036Z,18.73
2019-01-12T03:05:07.362Z,25.67
2019-01-12T03:07:34.629Z,18.13
2019-01-12T03:10:02.453Z,27.07
2019-01-12T03:12:29.706Z,21.63
2019-01-12T03:14:57.057Z,25.40
2019-01-12T03:17:24.600Z,27.00
2019-01-12T03:19:52.138Z,29.90
2019-01-12T03:22:19.389Z,32.53
2019-01-12T03:24:46.662Z,31.53
2019-01-12T03:27:14.183Z,33.50
2019-01-12T03:29:41.798Z,35.10
2019-01-12T03:32:09.148Z,30.50
2019-01-12T03:34:36.516Z,36.27
2019-01-12T03:37:04.196Z,33.77
2019-01-12T03:39:31.467Z,31.63
2019-01-12T03:41:58.719Z,32.43
2019-01-12T03:44:26.234Z,31.20
2019-01-12T03:46:53.511Z,36.00
2019-01-12T03:49:21.061Z,39.50
2019-01-12T03:51:48.401Z,28.73
2019-01-12T03:54:15.674Z,32.67
2019-01-12T03:56:42.957Z,36.90
2019-01-12T03:59:10.210Z,35.10
2019-01-12T04:01:38.001Z,33.77
2019-01-12T04:04:05.513Z,29.87
2019-01-12T04:06:32.785Z,35.07
2019-01-12T04:09:00.039Z,34.97
2019-01-12T04:11:27.559Z,37.23
2019-01-12T04:13:55.073Z,32.60
2019-01-12T04:16:22.335Z,40.80
2019-01-12T04:18:49.671Z,32.73
2019-01-12T04:21:16.902Z,34.90
2019-01-12T04:23:44.183Z,40.73
2019-01-12T04:26:11.692Z,40.97
2019-01-12T04:28:38.934Z,39.20
2019-01-12T04:31:06.248Z,42.53
2019-01-12T04:33:33.852Z,44.53
2019-01-12T04:36:01.095Z,43.20
2019-01-12T04:38:28.370Z,46.27
2019-01-12T04:40:55.725Z,41.60
2019-01-12T04:43:23.059Z,47.97
2019-01-12T04:45:50.310Z,42.67
2019-01-12T04:48:17.558Z,44.77
2019-01-12T04:50:44.820Z,40.10
2019-01-12T04:53:12.378Z,42.53
2019-01-12T04:55:41.511Z,48.83
2019-01-12T04:58:09.060Z,45.90
2019-01-12T05:00:36.431Z,42.70
2019-01-12T05:03:03.692Z,47.13
2019-01-12T05:05:31.041Z,56.80
2019-01-12T05:07:58.417Z,48.13
2019-01-12T05:10:25.761Z,45.37
2019-01-12T05:12:53.129Z,55.13
2019-01-12T05:15:20.483Z,43.20
2019-01-12T05:17:47.642Z,48.73
2019-01-12T05:20:16.319Z,42.13
2019-01-12T05:22:43.507Z,44.67
2019-01-12T05:25:11.096Z,38.83
2019-01-12T05:27:38.456Z,41.87
2019-01-12T05:30:06.240Z,42.40
2019-01-12T05:32:33.529Z,41.13
2019-01-12T05:35:01.045Z,48.37
2019-01-12T05:37:28.303Z,44.57
2019-01-12T05:39:55.565Z,44.87
2019-01-12T05:42:22.921Z,48.50
2019-01-12T05:44:50.178Z,43.80
2019-01-12T05:47:17.471Z,40.07
2019-01-12T05:49:44.818Z,37.60
2019-01-12T05:52:12.624Z,39.47
2019-01-12T05:54:39.972Z,34.83
2019-01-12T05:57:07.253Z,34.63
2019-01-12T05:59:34.576Z,40.17
2019-01-12T06:02:01.833Z,30.60
2019-01-12T06:04:29.353Z,34.73
2019-01-12T06:06:56.588Z,34.00
2019-01-12T06:09:23.832Z,33.00
2019-01-12T06:11:51.117Z,36.80
2019-01-12T06:14:18.741Z,33.20
2019-01-12T06:16:46.368Z,34.33
2019-01-12T06:19:13.725Z,32.43
2019-01-12T06:21:41.112Z,36.70
2019-01-12T06:24:08.446Z,31.57
2019-01-12T06:26:35.773Z,37.83
2019-01-12T06:29:03.072Z,36.50
2019-01-12T06:31:30.666Z,35.13
2019-01-12T06:33:58.031Z,42.97
2019-01-12T06:36:25.545Z,36.63
2019-01-12T06:38:52.834Z,35.33
2019-01-12T06:41:20.167Z,33.57
2019-01-12T06:43:47.419Z,37.50
2019-01-12T06:46:14.675Z,30.80
2019-01-12T06:48:41.959Z,36.07
2019-01-12T06:51:09.520Z,33.20
2019-01-12T06:53:37.029Z,34.50
2019-01-12T06:56:10.681Z,30.80
2019-01-12T06:58:33.831Z,34.27
2019-01-12T07:01:01.403Z,38.33
2019-01-12T07:03:29.014Z,34.03
2019-01-12T07:05:56.362Z,30.10
2019-01-12T07:08:23.613Z,31.33
2019-01-12T07:10:51.187Z,27.87
2019-01-12T07:13:18.529Z,35.13
2019-01-12T07:15:46.024Z,37.53
2019-01-12T07:18:13.324Z,33.27
2019-01-12T07:20:40.555Z,30.67
2019-01-12T07:23:07.822Z,27.40
2019-01-12T07:25:35.272Z,29.97
2019-01-12T07:28:02.856Z,35.97
2019-01-12T07:30:30.139Z,34.60
2019-01-12T07:32:57.658Z,37.47
2019-01-12T07:35:25.767Z,35.53
2019-01-12T07:37:53.071Z,37.20
2019-01-12T07:40:20.368Z,35.83
2019-01-12T07:42:47.723Z,36.63
2019-01-12T07:45:15.332Z,34.97
2019-01-12T07:47:42.670Z,35.87
2019-01-12T07:50:10.577Z,32.40
2019-01-12T07:52:37.815Z,36.73
2019-01-12T07:55:05.392Z,42.67
2019-01-12T07:57:32.638Z,44.83
2019-01-12T08:00:00.014Z,36.37
2019-01-12T08:02:30.735Z,34.70
2019-01-12T08:05:17.777Z,36.73
2019-01-12T08:07:45.061Z,31.53
2019-01-12T08:10:13.820Z,37.83
2019-01-12T08:12:41.155Z,37.43
2019-01-12T08:15:08.685Z,42.93
2019-01-12T08:17:35.933Z,34.53
2019-01-12T08:20:03.305Z,40.73
2019-01-12T08:22:31.084Z,41.20
2019-01-12T08:24:58.334Z,36.37
2019-01-12T08:27:25.918Z,30.57
2019-01-12T08:29:53.173Z,37.97
2019-01-12T08:32:20.430Z,30.20
2019-01-12T08:34:47.860Z,56.47
2019-01-12T08:37:15.157Z,35.33
2019-01-12T08:39:42.524Z,30.77
2019-01-12T08:45:09.037Z,30.27
2019-01-12T08:47:55.766Z,32.20
2019-01-12T08:50:23.318Z,28.67
2019-01-12T08:52:50.559Z,27.97
2019-01-12T08:55:17.820Z,28.87
2019-01-12T08:57:45.335Z,31.00
2019-01-12T09:00:32.166Z,31.30
2019-01-12T09:02:59.550Z,30.67
2019-01-12T09:05:26.804Z,31.97
2019-01-12T09:07:54.088Z,27.73
2019-01-12T09:10:21.870Z,29.50
2019-01-12T09:12:49.456Z,28.13
2019-01-12T09:15:16.722Z,27.33
2019-01-12T09:17:44.298Z,22.97
2019-01-12T09:20:11.846Z,27.40
2019-01-12T09:22:39.115Z,30.43
2019-01-12T09:25:26.233Z,29.73
2019-01-12T09:28:12.963Z,28.33
2019-01-12T09:30:40.624Z,27.57
2019-01-12T09:33:09.313Z,23.37
2019-01-12T09:35:36.699Z,22.07
2019-01-12T09:38:03.983Z,22.17
2019-01-12T09:40:31.251Z,24.77
2019-01-12T09:42:58.779Z,22.30
2019-01-12T09:45:26.059Z,22.63
2019-01-12T09:47:53.589Z,22.97
2019-01-12T09:50:21.101Z,16.40
2019-01-12T09:53:08.142Z,26.73
2019-01-12T09:55:35.586Z,19.10
2019-01-12T09:58:03.563Z,14.03
2019-01-12T10:00:31.061Z,26.13
2019-01-12T10:02:58.615Z,16.07
2019-01-12T10:05:26.129Z,16.07
2019-01-12T10:08:12.908Z,17.87
2019-01-12T10:10:40.288Z,18.27
2019-01-12T10:13:07.542Z,16.23
2019-01-12T10:15:34.818Z,15.63
2019-01-12T10:18:02.051Z,17.60
2019-01-12T10:20:48.790Z,15.50
2019-01-12T10:23:16.369Z,19.57
2019-01-12T10:25:43.717Z,15.10
2019-01-12T10:28:30.582Z,16.47
2019-01-12T10:31:17.412Z,14.93
2019-01-12T10:33:44.714Z,12.87
2019-01-12T10:36:12.085Z,13.57
2019-01-12T10:38:59.099Z,15.90
2019-01-12T10:41:26.363Z,13.83
2019-01-12T10:43:53.611Z,15.17
2019-01-12T10:46:21.176Z,10.13
2019-01-12T10:48:48.424Z,13.63
2019-01-12T10:51:15.698Z,12.20
2019-01-12T10:53:42.952Z,14.30
2019-01-12T10:56:29.692Z,13.03
2019-01-12T10:58:57.382Z,16.27
2019-01-12T11:01:24.932Z,17.23
2019-01-12T11:03:52.450Z,14.07
2019-01-12T11:06:20.021Z,15.83
2019-01-12T11:08:48.124Z,12.60
2019-01-12T11:11:15.481Z,21.10
2019-01-12T11:13:43.022Z,15.50
2019-01-12T11:16:10.406Z,13.40
2019-01-12T11:18:37.769Z,16.67
2019-01-12T11:21:05.005Z,19.37
2019-01-12T11:23:32.463Z,15.33
2019-01-12T11:25:59.812Z,15.97
2019-01-12T11:28:27.142Z,14.60
2019-01-12T11:30:54.745Z,13.63
2019-01-12T11:33:22.087Z,17.77
2019-01-12T11:35:49.363Z,14.23
2019-01-12T11:38:16.636Z,15.00
2019-01-12T11:40:44.001Z,12.40
2019-01-12T11:43:30.772Z,13.33
2019-01-12T11:45:58.139Z,12.23
2019-01-12T11:48:25.384Z,14.57
2019-01-12T11:50:52.819Z,11.03
2019-01-12T11:53:20.093Z,14.80
2019-01-12T11:55:47.604Z,10.53
2019-01-12T11:58:14.851Z,15.57
2019-01-12T12:00:42.141Z,13.07
2019-01-12T12:03:09.441Z,14.47
2019-01-12T12:05:36.775Z,12.47
2019-01-12T12:08:04.049Z,10.37
2019-01-12T12:10:31.320Z,11.03
2019-01-12T12:12:58.679Z,16.83
2019-01-12T12:15:26.058Z,11.73
2019-01-12T12:17:53.416Z,20.60
2019-01-12T12:20:22.168Z,16.03
2019-01-12T12:23:09.271Z,13.60
2019-01-12T12:25:37.062Z,8.70
2019-01-12T12:28:04.417Z,12.90
2019-01-12T12:30:31.921Z,15.37
2019-01-12T12:32:59.280Z,12.77
2019-01-12T12:35:26.932Z,16.50
2019-01-12T12:38:13.735Z,16.33
2019-01-12T12:40:41.304Z,14.60
2019-01-12T12:43:28.047Z,19.57
2019-01-12T12:46:14.783Z,13.83
2019-01-12T12:48:42.051Z,15.83
2019-01-12T12:51:09.700Z,16.57
2019-01-12T12:53:36.976Z,22.57
2019-01-12T12:56:04.263Z,20.20
2019-01-12T12:58:31.808Z,20.67
2019-01-12T13:01:18.650Z,21.33
2019-01-12T13:03:45.917Z,19.17
2019-01-12T13:06:13.318Z,24.43
2019-01-12T13:08:40.578Z,22.13
2019-01-12T13:11:07.913Z,23.50
2019-01-12T13:13:35.225Z,25.47
2019-01-12T13:16:02.496Z,21.23
2019-01-12T13:18:29.854Z,28.63
2019-01-12T13:20:57.524Z,28.70
2019-01-12T13:23:24.707Z,26.80
2019-01-12T13:25:52.063Z,28.50
2019-01-12T13:28:38.830Z,27.60
2019-01-12T13:31:06.370Z,27.33
2019-01-12T13:33:53.779Z,24.17
2019-01-12T13:36:21.126Z,26.27
2019-01-12T13:38:48.415Z,28.13
2019-01-12T13:41:15.782Z,28.50
2019-01-12T13:43:43.041Z,32.33
2019-01-12T13:46:10.331Z,24.17
2019-01-12T13:48:37.602Z,25.40
2019-01-12T13:51:04.855Z,21.20
2019-01-12T13:53:51.631Z,24.57
2019-01-12T13:56:18.942Z,22.17
2019-01-12T13:58:46.196Z,26.70
2019-01-12T14:01:13.478Z,20.00
2019-01-12T14:03:40.847Z,22.63
2019-01-12T14:06:08.190Z,14.83
2019-01-12T14:08:35.649Z,21.33
2019-01-12T14:11:02.968Z,17.50
2019-01-12T14:13:30.599Z,12.93
2019-01-12T14:15:57.982Z,17.37
2019-01-12T14:18:25.328Z,11.97
2019-01-12T14:20:52.615Z,12.73
2019-01-12T14:23:19.865Z,9.23
2019-01-12T14:25:47.164Z,12.17
2019-01-12T14:28:14.456Z,9.63
2019-01-12T14:30:41.758Z,10.00
2019-01-12T14:33:09.015Z,9.60
2019-01-12T14:35:36.411Z,14.20
2019-01-12T14:38:03.793Z,8.30
2019-01-12T14:40:31.144Z,12.43
2019-01-12T14:42:58.407Z,11.47
2019-01-12T14:45:27.018Z,10.57
2019-01-12T14:47:54.381Z,11.10
2019-01-12T14:50:21.732Z,9.93
2019-01-12T14:52:49.121Z,8.67
2019-01-12T14:55:16.604Z,9.23
2019-01-12T14:57:44.015Z,9.40
2019-01-12T15:00:15.449Z,8.53
2019-01-12T15:02:42.808Z,7.10
2019-01-12T15:05:10.741Z,8.47
2019-01-12T15:07:38.111Z,6.97
2019-01-12T15:10:05.978Z,9.03
2019-01-12T15:12:33.238Z,7.03
2019-01-12T15:15:01.158Z,7.97
2019-01-12T15:17:28.726Z,4.70
2019-01-12T15:19:56.090Z,12.80
2019-01-12T15:22:23.634Z,7.50
2019-01-12T15:24:51.289Z,9.03
2019-01-12T15:27:18.574Z,19.57
2019-01-12T15:29:46.103Z,6.73
2019-01-12T15:32:13.365Z,7.23
2019-01-12T15:34:40.916Z,10.20
2019-01-12T15:37:08.461Z,13.60
2019-01-12T15:39:36.448Z,8.63
2019-01-12T15:42:03.807Z,11.10
2019-01-12T15:44:31.076Z,14.20
2019-01-12T15:46:58.340Z,8.90
2019-01-12T15:49:25.626Z,10.93
2019-01-12T15:51:52.899Z,8.33
2019-01-12T15:54:20.170Z,9.00
2019-01-12T15:56:47.426Z,7.33
2019-01-12T15:59:14.691Z,9.73
2019-01-12T16:01:42.073Z,9.03
2019-01-12T16:04:09.600Z,8.07
2019-01-12T16:06:36.939Z,13.13
2019-01-12T16:09:05.960Z,7.07
2019-01-12T16:11:33.220Z,12.73
2019-01-12T16:14:00.573Z,9.23
2019-01-12T16:16:27.940Z,9.33
2019-01-12T16:18:55.199Z,8.40
2019-01-12T16:21:22.509Z,12.43
2019-01-12T16:23:49.908Z,10.10
2019-01-12T16:26:17.237Z,10.07
2019-01-12T16:28:44.775Z,12.37
2019-01-12T16:31:12.047Z,11.17
2019-01-12T16:33:39.380Z,11.03
2019-01-12T16:36:06.930Z,9.90
2019-01-12T16:38:34.192Z,13.37
2019-01-12T16:41:02.103Z,10.03
2019-01-12T16:43:29.394Z,7.87
2019-01-12T16:45:56.921Z,12.13
2019-01-12T16:48:24.359Z,13.83
2019-01-12T16:50:52.298Z,13.67
2019-01-12T16:53:19.804Z,14.03
2019-01-12T16:55:47.043Z,9.40
2019-01-12T16:58:14.322Z,12.33
2019-01-12T17:00:41.583Z,16.50
2019-01-12T17:03:08.938Z,12.77
2019-01-12T17:05:36.335Z,15.60
2019-01-12T17:08:03.966Z,12.23
2019-01-12T17:10:32.167Z,12.20
2019-01-12T17:12:59.624Z,13.40
2019-01-12T17:15:34.313Z,11.00
2019-01-12T17:17:56.332Z,13.17
2019-01-12T17:20:24.870Z,15.90
2019-01-12T17:22:52.752Z,10.53
2019-01-12T17:25:20.004Z,14.10
2019-01-12T17:27:47.275Z,11.10
2019-01-12T17:30:15.625Z,10.60
2019-01-12T17:32:43.010Z,9.63
2019-01-12T17:35:10.949Z,14.63
2019-01-12T17:37:38.226Z,11.40
2019-01-12T17:40:06.060Z,8.73
2019-01-12T17:42:33.394Z,10.53
2019-01-12T17:45:00.670Z,9.90
2019-01-12T17:47:27.931Z,10.93
2019-01-12T17:49:55.183Z,14.20
2019-01-12T17:52:22.878Z,10.20
2019-01-12T17:54:50.214Z,9.37
2019-01-12T17:57:17.583Z,7.93
2019-01-12T17:59:44.823Z,9.13
2019-01-12T18:02:12.108Z,10.40
2019-01-12T18:04:39.461Z,11.50
2019-01-12T18:07:06.785Z,10.47
2019-01-12T18:09:34.342Z,8.00
2019-01-12T18:12:01.647Z,12.80
2019-01-12T18:14:29.244Z,15.07
2019-01-12T18:16:56.528Z,14.07
2019-01-12T18:19:23.825Z,12.17
2019-01-12T18:21:51.178Z,16.23
2019-01-12T18:24:18.734Z,11.47
2019-01-12T18:26:46.276Z,12.10
2019-01-12T18:29:13.929Z,16.70
2019-01-12T18:31:41.281Z,17.07
2019-01-12T18:34:08.634Z,8.97
2019-01-12T18:36:35.984Z,13.13
2019-01-12T18:39:05.119Z,11.13
2019-01-12T18:41:32.403Z,13.23
2019-01-12T18:43:59.675Z,8.47
2019-01-12T18:46:26.968Z,11.37
2019-01-12T18:48:54.258Z,14.20
2019-01-12T18:51:21.511Z,10.23
2019-01-12T18:53:48.866Z,11.17
2019-01-12T18:56:16.240Z,15.37
2019-01-12T18:58:43.492Z,11.77
2019-01-12T19:01:10.781Z,14.13
2019-01-12T19:03:38.070Z,11.90
2019-01-12T19:06:05.425Z,10.47
2019-01-12T19:08:32.727Z,12.67
2019-01-12T19:10:59.978Z,17.33
2019-01-12T19:13:27.232Z,10.83
2019-01-12T19:15:54.778Z,9.50
2019-01-12T19:18:22.317Z,11.10
2019-01-12T19:20:49.668Z,13.90
2019-01-12T19:23:17.208Z,10.43
2019-01-12T19:25:44.741Z,8.33
2019-01-12T19:28:12.006Z,16.50
2019-01-12T19:30:39.344Z,7.93
2019-01-12T19:33:06.609Z,10.20
2019-01-12T19:35:33.882Z,11.83
2019-01-12T19:38:01.162Z,10.93
2019-01-12T19:40:28.719Z,7.33
2019-01-12T19:42:56.382Z,10.10
2019-01-12T19:45:24.173Z,10.33
2019-01-12T19:47:52.371Z,11.93
2019-01-12T19:50:21.221Z,8.03
2019-01-12T19:52:48.505Z,7.50
2019-01-12T19:55:16.009Z,10.57
2019-01-12T19:57:43.572Z,12.00
2019-01-12T20:00:14.442Z,11.30
2019-01-12T20:02:41.768Z,8.90
2019-01-12T20:05:09.211Z,8.73
2019-01-12T20:07:36.485Z,13.20
2019-01-12T20:10:05.067Z,8.73
2019-01-12T20:12:32.323Z,9.87
2019-01-12T20:14:59.703Z,10.87
2019-01-12T20:17:26.978Z,8.47
2019-01-12T20:19:54.267Z,15.87
2019-01-12T20:22:21.537Z,14.27
2019-01-12T20:24:48.900Z,11.10
2019-01-12T20:27:16.453Z,14.13
2019-01-12T20:29:44.118Z,10.27
2019-01-12T20:32:30.879Z,12.10
2019-01-12T20:35:29.565Z,11.23
2019-01-12T20:38:09.431Z,12.70
2019-01-12T20:40:58.549Z,11.73
2019-01-12T20:43:39.512Z,15.27
2019-01-12T20:46:29.372Z,9.33
2019-01-12T20:49:28.095Z,7.97
2019-01-12T20:52:08.120Z,18.93
2019-01-12T20:54:46.859Z,7.40
2019-01-12T21:00:31.212Z,10.63
2019-01-12T21:03:03.929Z,12.97
2019-01-12T21:05:50.700Z,6.90
2019-01-12T21:08:39.500Z,8.87
2019-01-12T21:11:35.403Z,11.07
2019-01-12T21:14:22.171Z,9.57
2019-01-12T21:16:54.796Z,9.47
2019-01-12T21:19:22.040Z,9.27
2019-01-12T21:21:49.363Z,6.73
2019-01-12T21:24:16.646Z,8.23
2019-01-12T21:26:43.908Z,10.43
2019-01-12T21:29:11.276Z,7.33
2019-01-12T21:31:58.404Z,11.23
2019-01-12T21:34:25.944Z,10.73
2019-01-12T21:36:53.200Z,5.50
2019-01-12T21:39:20.465Z,12.73
2019-01-12T21:42:07.236Z,8.20
2019-01-12T21:44:34.581Z,8.77
2019-01-12T21:47:01.833Z,7.03
2019-01-12T21:49:48.580Z,5.00
2019-01-12T21:52:15.840Z,10.00
2019-01-12T21:54:43.180Z,9.30
2019-01-12T21:57:10.463Z,10.77
2019-01-12T21:59:57.194Z,9.97
2019-01-12T22:02:24.740Z,6.43
2019-01-12T22:04:52.127Z,9.20
2019-01-12T22:07:19.376Z,9.83
2019-01-12T22:09:46.767Z,5.93
2019-01-12T22:12:14.405Z,9.90
2019-01-12T22:15:01.146Z,9.60
2019-01-12T22:17:28.444Z,4.97
2019-01-12T22:19:55.704Z,5.57
2019-01-12T22:22:23.057Z,11.10
2019-01-12T22:24:50.434Z,5.03
2019-01-12T22:27:17.797Z,6.63
2019-01-12T22:29:49.854Z,9.13
2019-01-12T22:32:14.520Z,8.10
2019-01-12T22:35:01.601Z,7.43
2019-01-12T22:40:30.576Z,8.27
2019-01-12T22:42:58.000Z,10.27
2019-01-12T22:45:25.359Z,9.37
2019-01-12T22:48:12.097Z,11.83
2019-01-12T22:50:39.389Z,9.70
2019-01-12T22:53:06.932Z,11.37
2019-01-12T22:55:34.281Z,8.87
2019-01-12T22:58:01.829Z,8.83
2019-01-12T23:00:48.227Z,12.23
2019-01-12T23:03:16.172Z,11.77
2019-01-12T23:05:43.526Z,7.73
2019-01-12T23:08:10.829Z,7.80
2019-01-12T23:10:38.102Z,11.77
2019-01-12T23:13:05.460Z,10.20
2019-01-12T23:15:32.829Z,8.57
2019-01-12T23:18:00.186Z,11.57
2019-01-12T23:20:46.935Z,9.73
2019-01-12T23:23:14.218Z,16.37
2019-01-12T23:25:41.571Z,11.60
2019-01-12T23:28:08.956Z,14.40
2019-01-12T23:30:36.231Z,14.67
2019-01-12T23:33:22.959Z,12.10
2019-01-12T23:35:50.507Z,8.73
2019-01-12T23:38:17.863Z,15.43
2019-01-12T23:40:45.773Z,14.87
2019-01-12T23:43:32.872Z,16.73
2019-01-12T23:46:00.157Z,13.50
2019-01-12T23:48:27.421Z,12.90
2019-01-12T23:50:55.008Z,12.60
2019-01-12T23:53:22.248Z,16.17
2019-01-12T23:55:49.776Z,11.33
2019-01-12T23:58:17.037Z,15.00
